sensor_id;sensor_type;location;lat;lon;timestamp;temperature;humidity
35240;DHT22;21376;50.954;4.716;2023-05-07T00:00:57;16.00;99.90
35240;DHT22;21376;50.954;4.716;2023-05-07T00:03:34;16.00;99.90
35240;DHT22;21376;50.954;4.716;2023-05-07T00:06:00;16.00;99.90
35240;DHT22;21376;50.954;4.716;2023-05-07T00:08:28;16.10;99.90
35240;DHT22;21376;50.954;4.716;2023-05-07T00:15:52;16.00;99.90
35240;DHT22;21376;50.954;4.716;2023-05-07T00:20:48;16.10;99.90
35240;DHT22;21376;50.954;4.716;2023-05-07T00:23:17;16.10;99.90
35240;DHT22;21376;50.954;4.716;2023-05-07T00:25:46;16.10;99.90
35240;DHT22;21376;50.954;4.716;2023-05-07T00:28:18;16.10;99.90
35240;DHT22;21376;50.954;4.716;2023-05-07T00:30:47;16.10;99.90
35240;DHT22;21376;50.954;4.716;2023-05-07T00:33:19;16.10;99.90
35240;DHT22;21376;50.954;4.716;2023-05-07T00:38:11;16.00;99.90
35240;DHT22;21376;50.954;4.716;2023-05-07T00:40:37;16.10;99.90
35240;DHT22;21376;50.954;4.716;2023-05-07T00:43:02;16.00;99.90
35240;DHT22;21376;50.954;4.716;2023-05-07T00:45:33;16.10;99.90
35240;DHT22;21376;50.954;4.716;2023-05-07T00:48:05;16.10;99.90
35240;DHT22;21376;50.954;4.716;2023-05-07T00:50:32;16.10;99.90
35240;DHT22;21376;50.954;4.716;2023-05-07T00:52:59;16.00;99.90
35240;DHT22;21376;50.954;4.716;2023-05-07T00:55:28;16.00;99.90
35240;DHT22;21376;50.954;4.716;2023-05-07T00:57:55;15.90;99.90
35240;DHT22;21376;50.954;4.716;2023-05-07T01:00:29;15.70;99.90
35240;DHT22;21376;50.954;4.716;2023-05-07T01:02:58;15.70;99.90
35240;DHT22;21376;50.954;4.716;2023-05-07T01:05:26;15.80;99.90
35240;DHT22;21376;50.954;4.716;2023-05-07T01:07:54;15.90;99.90
35240;DHT22;21376;50.954;4.716;2023-05-07T01:10:23;15.90;99.90
35240;DHT22;21376;50.954;4.716;2023-05-07T01:12:49;15.80;99.90
35240;DHT22;21376;50.954;4.716;2023-05-07T01:20:14;15.80;99.90
35240;DHT22;21376;50.954;4.716;2023-05-07T01:25:13;15.60;99.90
35240;DHT22;21376;50.954;4.716;2023-05-07T01:27:42;15.60;99.90
35240;DHT22;21376;50.954;4.716;2023-05-07T01:30:08;15.70;99.90
35240;DHT22;21376;50.954;4.716;2023-05-07T01:35:32;15.80;99.90
35240;DHT22;21376;50.954;4.716;2023-05-07T01:37:59;15.90;99.90
35240;DHT22;21376;50.954;4.716;2023-05-07T01:40:26;15.80;99.90
35240;DHT22;21376;50.954;4.716;2023-05-07T01:42:54;15.80;99.90
35240;DHT22;21376;50.954;4.716;2023-05-07T01:47:53;15.90;99.90
35240;DHT22;21376;50.954;4.716;2023-05-07T01:50:21;15.80;99.90
35240;DHT22;21376;50.954;4.716;2023-05-07T01:52:51;15.80;99.90
35240;DHT22;21376;50.954;4.716;2023-05-07T01:55:18;15.80;99.90
35240;DHT22;21376;50.954;4.716;2023-05-07T02:00:16;15.70;99.90
35240;DHT22;21376;50.954;4.716;2023-05-07T02:02:46;15.80;99.90
35240;DHT22;21376;50.954;4.716;2023-05-07T02:05:12;15.70;99.90
35240;DHT22;21376;50.954;4.716;2023-05-07T02:07:38;15.80;99.90
35240;DHT22;21376;50.954;4.716;2023-05-07T02:10:10;15.80;99.90
35240;DHT22;21376;50.954;4.716;2023-05-07T02:15:04;15.90;99.90
35240;DHT22;21376;50.954;4.716;2023-05-07T02:23:07;15.60;99.90
35240;DHT22;21376;50.954;4.716;2023-05-07T02:25:40;15.80;99.90
35240;DHT22;21376;50.954;4.716;2023-05-07T02:28:07;15.90;99.90
35240;DHT22;21376;50.954;4.716;2023-05-07T02:30:33;15.90;99.90
35240;DHT22;21376;50.954;4.716;2023-05-07T02:35:27;15.90;99.90
35240;DHT22;21376;50.954;4.716;2023-05-07T02:37:53;15.80;99.90
35240;DHT22;21376;50.954;4.716;2023-05-07T02:40:22;15.70;99.90
35240;DHT22;21376;50.954;4.716;2023-05-07T02:45:18;15.80;99.90
35240;DHT22;21376;50.954;4.716;2023-05-07T02:47:45;15.80;99.90
35240;DHT22;21376;50.954;4.716;2023-05-07T02:52:44;15.70;99.90
35240;DHT22;21376;50.954;4.716;2023-05-07T02:55:10;15.60;99.90
35240;DHT22;21376;50.954;4.716;2023-05-07T02:57:39;15.60;99.90
35240;DHT22;21376;50.954;4.716;2023-05-07T03:00:17;15.60;99.90
35240;DHT22;21376;50.954;4.716;2023-05-07T03:02:44;15.60;99.90
35240;DHT22;21376;50.954;4.716;2023-05-07T03:05:13;15.50;99.90
35240;DHT22;21376;50.954;4.716;2023-05-07T03:07:40;15.60;99.90
35240;DHT22;21376;50.954;4.716;2023-05-07T03:10:16;15.60;99.90
35240;DHT22;21376;50.954;4.716;2023-05-07T03:12:43;15.50;99.90
35240;DHT22;21376;50.954;4.716;2023-05-07T03:15:09;15.60;99.90
35240;DHT22;21376;50.954;4.716;2023-05-07T03:17:36;15.40;99.90
35240;DHT22;21376;50.954;4.716;2023-05-07T03:22:36;15.40;99.90
35240;DHT22;21376;50.954;4.716;2023-05-07T03:29:59;15.60;99.90
35240;DHT22;21376;50.954;4.716;2023-05-07T03:32:26;15.70;99.90
35240;DHT22;21376;50.954;4.716;2023-05-07T03:34:55;15.60;99.90
35240;DHT22;21376;50.954;4.716;2023-05-07T03:37:23;15.70;99.90
35240;DHT22;21376;50.954;4.716;2023-05-07T03:39:54;15.70;99.90
35240;DHT22;21376;50.954;4.716;2023-05-07T03:42:21;15.70;99.90
35240;DHT22;21376;50.954;4.716;2023-05-07T03:47:17;15.70;99.90
35240;DHT22;21376;50.954;4.716;2023-05-07T03:49:45;15.60;99.90
35240;DHT22;21376;50.954;4.716;2023-05-07T03:52:12;15.60;99.90
35240;DHT22;21376;50.954;4.716;2023-05-07T03:54:40;15.60;99.90
35240;DHT22;21376;50.954;4.716;2023-05-07T04:02:03;15.60;99.90
35240;DHT22;21376;50.954;4.716;2023-05-07T04:04:32;15.60;99.90
35240;DHT22;21376;50.954;4.716;2023-05-07T04:09:28;15.60;99.90
35240;DHT22;21376;50.954;4.716;2023-05-07T04:12:01;15.60;99.90
35240;DHT22;21376;50.954;4.716;2023-05-07T04:14:28;15.30;99.90
35240;DHT22;21376;50.954;4.716;2023-05-07T04:19:24;15.10;99.90
35240;DHT22;21376;50.954;4.716;2023-05-07T04:24:23;15.30;99.90
35240;DHT22;21376;50.954;4.716;2023-05-07T04:29:43;15.50;99.90
35240;DHT22;21376;50.954;4.716;2023-05-07T04:32:22;15.50;99.90
35240;DHT22;21376;50.954;4.716;2023-05-07T04:34:50;15.60;99.90
35240;DHT22;21376;50.954;4.716;2023-05-07T04:37:16;15.60;99.90
35240;DHT22;21376;50.954;4.716;2023-05-07T04:39:41;15.70;99.90
35240;DHT22;21376;50.954;4.716;2023-05-07T04:42:08;15.70;99.90
35240;DHT22;21376;50.954;4.716;2023-05-07T04:44:38;15.60;99.90
35240;DHT22;21376;50.954;4.716;2023-05-07T04:47:10;15.60;99.90
35240;DHT22;21376;50.954;4.716;2023-05-07T04:49:41;15.70;99.90
35240;DHT22;21376;50.954;4.716;2023-05-07T04:52:26;15.80;99.90
35240;DHT22;21376;50.954;4.716;2023-05-07T04:57:54;15.90;99.90
35240;DHT22;21376;50.954;4.716;2023-05-07T05:00:26;16.00;99.90
35240;DHT22;21376;50.954;4.716;2023-05-07T05:02:53;16.10;99.90
35240;DHT22;21376;50.954;4.716;2023-05-07T05:05:25;16.20;99.90
35240;DHT22;21376;50.954;4.716;2023-05-07T05:10:19;16.30;99.90
35240;DHT22;21376;50.954;4.716;2023-05-07T05:12:45;16.40;99.90
35240;DHT22;21376;50.954;4.716;2023-05-07T05:15:14;16.60;99.90
35240;DHT22;21376;50.954;4.716;2023-05-07T05:22:41;16.50;99.90
35240;DHT22;21376;50.954;4.716;2023-05-07T05:25:10;16.20;99.90
35240;DHT22;21376;50.954;4.716;2023-05-07T05:27:39;16.60;99.90
35240;DHT22;21376;50.954;4.716;2023-05-07T05:32:40;17.00;99.90
35240;DHT22;21376;50.954;4.716;2023-05-07T05:35:08;17.10;99.90
35240;DHT22;21376;50.954;4.716;2023-05-07T05:37:33;17.30;99.90
35240;DHT22;21376;50.954;4.716;2023-05-07T05:40:00;17.20;99.90
35240;DHT22;21376;50.954;4.716;2023-05-07T05:44:58;17.10;99.90
35240;DHT22;21376;50.954;4.716;2023-05-07T05:47:25;17.00;99.90
35240;DHT22;21376;50.954;4.716;2023-05-07T05:49:53;16.70;99.90
35240;DHT22;21376;50.954;4.716;2023-05-07T05:52:22;16.60;99.90
35240;DHT22;21376;50.954;4.716;2023-05-07T05:54:50;16.40;99.90
35240;DHT22;21376;50.954;4.716;2023-05-07T05:57:19;16.50;99.90
35240;DHT22;21376;50.954;4.716;2023-05-07T05:59:46;16.60;99.90
35240;DHT22;21376;50.954;4.716;2023-05-07T06:02:18;16.60;99.90
35240;DHT22;21376;50.954;4.716;2023-05-07T06:07:13;16.40;99.90
35240;DHT22;21376;50.954;4.716;2023-05-07T06:09:38;16.40;99.90
35240;DHT22;21376;50.954;4.716;2023-05-07T06:12:11;16.40;99.90
35240;DHT22;21376;50.954;4.716;2023-05-07T06:14:43;16.60;99.90
35240;DHT22;21376;50.954;4.716;2023-05-07T06:17:08;16.70;99.90
35240;DHT22;21376;50.954;4.716;2023-05-07T06:19:37;17.00;99.90
35240;DHT22;21376;50.954;4.716;2023-05-07T06:22:06;17.30;99.90
35240;DHT22;21376;50.954;4.716;2023-05-07T06:24:34;17.70;99.90
35240;DHT22;21376;50.954;4.716;2023-05-07T06:27:03;17.90;99.90
35240;DHT22;21376;50.954;4.716;2023-05-07T06:29:29;18.00;99.90
35240;DHT22;21376;50.954;4.716;2023-05-07T06:32:05;18.10;99.90
35240;DHT22;21376;50.954;4.716;2023-05-07T06:37:03;19.00;99.90
35240;DHT22;21376;50.954;4.716;2023-05-07T06:39:29;19.60;99.90
35240;DHT22;21376;50.954;4.716;2023-05-07T06:41:57;20.20;99.90
35240;DHT22;21376;50.954;4.716;2023-05-07T06:44:24;20.60;99.90
35240;DHT22;21376;50.954;4.716;2023-05-07T06:49:18;20.80;99.90
35240;DHT22;21376;50.954;4.716;2023-05-07T06:51:47;20.30;99.90
35240;DHT22;21376;50.954;4.716;2023-05-07T06:54:13;19.90;99.90
35240;DHT22;21376;50.954;4.716;2023-05-07T06:56:42;19.40;99.90
35240;DHT22;21376;50.954;4.716;2023-05-07T06:59:10;19.10;99.90
35240;DHT22;21376;50.954;4.716;2023-05-07T07:01:36;18.50;99.90
35240;DHT22;21376;50.954;4.716;2023-05-07T07:04:08;18.30;99.90
35240;DHT22;21376;50.954;4.716;2023-05-07T07:06:35;18.30;99.90
35240;DHT22;21376;50.954;4.716;2023-05-07T07:09:01;18.50;99.90
35240;DHT22;21376;50.954;4.716;2023-05-07T07:11:28;18.20;99.90
35240;DHT22;21376;50.954;4.716;2023-05-07T07:16:27;18.30;99.90
35240;DHT22;21376;50.954;4.716;2023-05-07T07:18:58;18.20;99.90
35240;DHT22;21376;50.954;4.716;2023-05-07T07:21:25;18.20;99.90
35240;DHT22;21376;50.954;4.716;2023-05-07T07:24:02;18.10;99.90
35240;DHT22;21376;50.954;4.716;2023-05-07T07:26:37;18.20;99.90
35240;DHT22;21376;50.954;4.716;2023-05-07T07:29:05;18.30;99.90
35240;DHT22;21376;50.954;4.716;2023-05-07T07:31:32;18.40;99.90
35240;DHT22;21376;50.954;4.716;2023-05-07T07:33:58;18.50;99.90
35240;DHT22;21376;50.954;4.716;2023-05-07T07:36:26;18.30;99.90
35240;DHT22;21376;50.954;4.716;2023-05-07T07:39:03;18.50;99.90
35240;DHT22;21376;50.954;4.716;2023-05-07T07:41:41;18.50;99.90
35240;DHT22;21376;50.954;4.716;2023-05-07T07:46:41;18.70;99.90
35240;DHT22;21376;50.954;4.716;2023-05-07T07:49:07;18.70;99.90
35240;DHT22;21376;50.954;4.716;2023-05-07T07:51:36;18.60;99.90
35240;DHT22;21376;50.954;4.716;2023-05-07T07:54:01;18.60;99.90
35240;DHT22;21376;50.954;4.716;2023-05-07T07:56:28;18.70;99.90
35240;DHT22;21376;50.954;4.716;2023-05-07T07:58:55;18.80;99.90
35240;DHT22;21376;50.954;4.716;2023-05-07T08:01:26;18.70;99.90
35240;DHT22;21376;50.954;4.716;2023-05-07T08:03:52;18.70;99.90
35240;DHT22;21376;50.954;4.716;2023-05-07T08:11:59;18.80;99.90
35240;DHT22;21376;50.954;4.716;2023-05-07T08:14:29;19.10;99.90
35240;DHT22;21376;50.954;4.716;2023-05-07T08:17:08;18.90;99.90
35240;DHT22;21376;50.954;4.716;2023-05-07T08:22:04;19.00;99.90
35240;DHT22;21376;50.954;4.716;2023-05-07T08:27:02;18.90;99.90
35240;DHT22;21376;50.954;4.716;2023-05-07T08:29:29;18.70;99.90
35240;DHT22;21376;50.954;4.716;2023-05-07T08:31:57;18.70;99.90
35240;DHT22;21376;50.954;4.716;2023-05-07T08:34:25;18.50;99.90
35240;DHT22;21376;50.954;4.716;2023-05-07T08:36:50;18.60;99.90
35240;DHT22;21376;50.954;4.716;2023-05-07T08:39:16;18.50;99.90
35240;DHT22;21376;50.954;4.716;2023-05-07T08:41:44;18.60;99.90
35240;DHT22;21376;50.954;4.716;2023-05-07T08:44:11;18.70;99.90
35240;DHT22;21376;50.954;4.716;2023-05-07T08:46:45;18.90;99.90
35240;DHT22;21376;50.954;4.716;2023-05-07T08:49:21;18.80;99.90
35240;DHT22;21376;50.954;4.716;2023-05-07T08:51:49;19.10;99.90
35240;DHT22;21376;50.954;4.716;2023-05-07T08:54:18;18.90;99.90
35240;DHT22;21376;50.954;4.716;2023-05-07T08:56:45;18.90;99.90
35240;DHT22;21376;50.954;4.716;2023-05-07T08:59:13;19.00;99.90
35240;DHT22;21376;50.954;4.716;2023-05-07T09:01:38;19.00;99.90
35240;DHT22;21376;50.954;4.716;2023-05-07T09:04:06;18.80;99.90
35240;DHT22;21376;50.954;4.716;2023-05-07T09:06:35;18.80;99.90
35240;DHT22;21376;50.954;4.716;2023-05-07T09:11:35;18.80;99.90
35240;DHT22;21376;50.954;4.716;2023-05-07T09:16:33;18.80;99.90
35240;DHT22;21376;50.954;4.716;2023-05-07T09:18:59;18.80;99.90
35240;DHT22;21376;50.954;4.716;2023-05-07T09:21:28;18.70;99.90
35240;DHT22;21376;50.954;4.716;2023-05-07T09:23:54;18.60;99.90
35240;DHT22;21376;50.954;4.716;2023-05-07T09:26:26;18.70;99.90
35240;DHT22;21376;50.954;4.716;2023-05-07T09:28:55;18.60;99.90
35240;DHT22;21376;50.954;4.716;2023-05-07T09:31:24;18.50;99.90
35240;DHT22;21376;50.954;4.716;2023-05-07T09:33:52;18.40;99.90
35240;DHT22;21376;50.954;4.716;2023-05-07T09:36:18;18.40;99.90
35240;DHT22;21376;50.954;4.716;2023-05-07T09:38:50;18.50;99.90
35240;DHT22;21376;50.954;4.716;2023-05-07T09:44:02;18.70;99.90
35240;DHT22;21376;50.954;4.716;2023-05-07T09:46:29;18.50;99.90
35240;DHT22;21376;50.954;4.716;2023-05-07T09:48:57;18.50;99.90
35240;DHT22;21376;50.954;4.716;2023-05-07T09:51:33;18.40;99.90
35240;DHT22;21376;50.954;4.716;2023-05-07T09:54:04;18.50;99.90
35240;DHT22;21376;50.954;4.716;2023-05-07T10:01:35;18.50;99.90
35240;DHT22;21376;50.954;4.716;2023-05-07T10:04:03;18.80;99.90
35240;DHT22;21376;50.954;4.716;2023-05-07T10:06:33;19.00;99.90
35240;DHT22;21376;50.954;4.716;2023-05-07T10:09:00;19.10;99.90
35240;DHT22;21376;50.954;4.716;2023-05-07T10:11:28;19.40;99.90
35240;DHT22;21376;50.954;4.716;2023-05-07T10:13:56;19.10;99.90
35240;DHT22;21376;50.954;4.716;2023-05-07T10:16:25;19.10;99.90
35240;DHT22;21376;50.954;4.716;2023-05-07T10:18:52;19.10;99.90
35240;DHT22;21376;50.954;4.716;2023-05-07T10:24:31;18.60;99.90
35240;DHT22;21376;50.954;4.716;2023-05-07T10:29:18;18.70;99.90
35240;DHT22;21376;50.954;4.716;2023-05-07T10:31:49;18.70;99.90
35240;DHT22;21376;50.954;4.716;2023-05-07T10:36:57;18.90;99.90
35240;DHT22;21376;50.954;4.716;2023-05-07T10:39:23;18.80;99.90
35240;DHT22;21376;50.954;4.716;2023-05-07T10:41:52;18.50;99.90
35240;DHT22;21376;50.954;4.716;2023-05-07T10:44:28;18.70;99.90
35240;DHT22;21376;50.954;4.716;2023-05-07T10:47:17;19.00;99.90
35240;DHT22;21376;50.954;4.716;2023-05-07T10:52:17;18.50;99.90
35240;DHT22;21376;50.954;4.716;2023-05-07T10:54:44;18.40;99.90
35240;DHT22;21376;50.954;4.716;2023-05-07T10:59:57;18.60;99.90
35240;DHT22;21376;50.954;4.716;2023-05-07T11:15:13;18.80;99.90
35240;DHT22;21376;50.954;4.716;2023-05-07T11:21:02;18.60;99.90
35240;DHT22;21376;50.954;4.716;2023-05-07T11:25:40;18.40;99.90
35240;DHT22;21376;50.954;4.716;2023-05-07T11:28:07;18.60;99.90
35240;DHT22;21376;50.954;4.716;2023-05-07T11:33:09;19.00;99.90
35240;DHT22;21376;50.954;4.716;2023-05-07T11:38:07;19.40;99.90
35240;DHT22;21376;50.954;4.716;2023-05-07T11:46:09;19.50;99.90
35240;DHT22;21376;50.954;4.716;2023-05-07T11:48:38;19.40;99.90
35240;DHT22;21376;50.954;4.716;2023-05-07T11:51:19;19.00;99.90
35240;DHT22;21376;50.954;4.716;2023-05-07T11:53:45;19.10;99.90
35240;DHT22;21376;50.954;4.716;2023-05-07T11:56:12;19.40;99.90
35240;DHT22;21376;50.954;4.716;2023-05-07T11:58:41;19.30;99.90
35240;DHT22;21376;50.954;4.716;2023-05-07T12:01:14;19.40;99.90
35240;DHT22;21376;50.954;4.716;2023-05-07T12:03:40;19.70;99.90
35240;DHT22;21376;50.954;4.716;2023-05-07T12:08:45;19.80;99.90
35240;DHT22;21376;50.954;4.716;2023-05-07T12:11:15;19.70;99.90
35240;DHT22;21376;50.954;4.716;2023-05-07T12:16:07;20.10;99.90
35240;DHT22;21376;50.954;4.716;2023-05-07T12:21:03;20.30;99.90
35240;DHT22;21376;50.954;4.716;2023-05-07T12:23:33;20.20;99.90
35240;DHT22;21376;50.954;4.716;2023-05-07T12:25:59;20.50;99.90
35240;DHT22;21376;50.954;4.716;2023-05-07T12:28:26;20.50;99.90
35240;DHT22;21376;50.954;4.716;2023-05-07T12:30:52;20.40;99.90
35240;DHT22;21376;50.954;4.716;2023-05-07T12:33:18;20.50;99.90
35240;DHT22;21376;50.954;4.716;2023-05-07T12:35:48;20.70;99.90
35240;DHT22;21376;50.954;4.716;2023-05-07T12:38:14;20.80;99.90
35240;DHT22;21376;50.954;4.716;2023-05-07T12:40:59;21.10;99.90
35240;DHT22;21376;50.954;4.716;2023-05-07T12:43:25;21.10;99.90
35240;DHT22;21376;50.954;4.716;2023-05-07T12:45:55;20.80;99.90
35240;DHT22;21376;50.954;4.716;2023-05-07T12:48:24;20.80;99.90
35240;DHT22;21376;50.954;4.716;2023-05-07T12:53:56;20.70;99.90
35240;DHT22;21376;50.954;4.716;2023-05-07T12:56:22;20.80;99.90
35240;DHT22;21376;50.954;4.716;2023-05-07T12:58:51;20.90;99.90
35240;DHT22;21376;50.954;4.716;2023-05-07T13:01:29;20.90;99.90
35240;DHT22;21376;50.954;4.716;2023-05-07T13:06:25;20.40;99.90
35240;DHT22;21376;50.954;4.716;2023-05-07T13:08:52;20.40;99.90
35240;DHT22;21376;50.954;4.716;2023-05-07T13:11:21;20.60;99.90
35240;DHT22;21376;50.954;4.716;2023-05-07T13:13:50;20.40;99.90
35240;DHT22;21376;50.954;4.716;2023-05-07T13:16:15;20.40;99.90
35240;DHT22;21376;50.954;4.716;2023-05-07T13:18:44;20.40;99.90
35240;DHT22;21376;50.954;4.716;2023-05-07T13:21:19;20.20;99.90
35240;DHT22;21376;50.954;4.716;2023-05-07T13:23:54;20.50;99.90
35240;DHT22;21376;50.954;4.716;2023-05-07T13:28:52;20.90;99.90
35240;DHT22;21376;50.954;4.716;2023-05-07T13:37:19;21.20;99.90
35240;DHT22;21376;50.954;4.716;2023-05-07T13:48:08;22.30;99.90
35240;DHT22;21376;50.954;4.716;2023-05-07T13:50:46;22.30;99.90
35240;DHT22;21376;50.954;4.716;2023-05-07T13:53:18;22.30;99.90
35240;DHT22;21376;50.954;4.716;2023-05-07T13:55:51;22.30;99.90
35240;DHT22;21376;50.954;4.716;2023-05-07T14:01:04;22.90;99.90
35240;DHT22;21376;50.954;4.716;2023-05-07T14:03:44;23.00;99.90
35240;DHT22;21376;50.954;4.716;2023-05-07T14:06:24;23.20;99.90
35240;DHT22;21376;50.954;4.716;2023-05-07T14:08:53;23.30;99.90
35240;DHT22;21376;50.954;4.716;2023-05-07T14:14:36;23.20;99.90
35240;DHT22;21376;50.954;4.716;2023-05-07T14:17:02;23.40;99.90
35240;DHT22;21376;50.954;4.716;2023-05-07T14:19:28;23.40;99.90
35240;DHT22;21376;50.954;4.716;2023-05-07T14:29:43;22.80;99.90
35240;DHT22;21376;50.954;4.716;2023-05-07T14:32:11;22.60;99.90
35240;DHT22;21376;50.954;4.716;2023-05-07T14:34:42;22.60;99.90
35240;DHT22;21376;50.954;4.716;2023-05-07T14:37:14;22.50;99.90
35240;DHT22;21376;50.954;4.716;2023-05-07T14:39:43;22.60;99.90
35240;DHT22;21376;50.954;4.716;2023-05-07T14:42:12;22.50;99.90
35240;DHT22;21376;50.954;4.716;2023-05-07T14:47:10;22.50;99.90
35240;DHT22;21376;50.954;4.716;2023-05-07T14:49:37;22.60;99.90
35240;DHT22;21376;50.954;4.716;2023-05-07T14:52:03;22.60;99.90
35240;DHT22;21376;50.954;4.716;2023-05-07T14:54:43;22.70;99.90
35240;DHT22;21376;50.954;4.716;2023-05-07T15:02:50;23.10;99.90
35240;DHT22;21376;50.954;4.716;2023-05-07T15:05:23;22.90;99.90
35240;DHT22;21376;50.954;4.716;2023-05-07T15:07:55;23.00;99.90
35240;DHT22;21376;50.954;4.716;2023-05-07T15:10:21;23.10;99.90
35240;DHT22;21376;50.954;4.716;2023-05-07T15:15:17;23.10;99.90
35240;DHT22;21376;50.954;4.716;2023-05-07T15:17:52;23.10;99.90
35240;DHT22;21376;50.954;4.716;2023-05-07T15:22:49;23.00;99.90
35240;DHT22;21376;50.954;4.716;2023-05-07T15:25:14;23.00;99.90
35240;DHT22;21376;50.954;4.716;2023-05-07T15:27:40;22.90;99.90
35240;DHT22;21376;50.954;4.716;2023-05-07T15:30:07;23.00;99.90
35240;DHT22;21376;50.954;4.716;2023-05-07T15:32:35;23.00;99.90
35240;DHT22;21376;50.954;4.716;2023-05-07T15:35:01;23.00;99.90
35240;DHT22;21376;50.954;4.716;2023-05-07T15:37:27;23.00;99.90
35240;DHT22;21376;50.954;4.716;2023-05-07T15:39:52;22.90;99.90
35240;DHT22;21376;50.954;4.716;2023-05-07T15:42:18;22.40;99.90
35240;DHT22;21376;50.954;4.716;2023-05-07T15:44:44;21.60;99.90
35240;DHT22;21376;50.954;4.716;2023-05-07T15:47:10;21.10;99.90
35240;DHT22;21376;50.954;4.716;2023-05-07T15:49:36;21.20;99.90
35240;DHT22;21376;50.954;4.716;2023-05-07T15:52:01;21.40;99.90
35240;DHT22;21376;50.954;4.716;2023-05-07T15:54:27;21.80;99.90
35240;DHT22;21376;50.954;4.716;2023-05-07T15:56:53;22.10;99.90
35240;DHT22;21376;50.954;4.716;2023-05-07T15:59:18;21.90;99.90
35240;DHT22;21376;50.954;4.716;2023-05-07T16:01:44;21.70;99.90
35240;DHT22;21376;50.954;4.716;2023-05-07T16:04:10;21.90;99.90
35240;DHT22;21376;50.954;4.716;2023-05-07T16:06:36;21.90;99.90
35240;DHT22;21376;50.954;4.716;2023-05-07T16:09:03;21.70;99.90
35240;DHT22;21376;50.954;4.716;2023-05-07T16:11:32;21.90;99.90
35240;DHT22;21376;50.954;4.716;2023-05-07T16:16:26;21.50;99.90
35240;DHT22;21376;50.954;4.716;2023-05-07T16:18:57;21.90;99.90
35240;DHT22;21376;50.954;4.716;2023-05-07T16:21:24;22.00;99.90
35240;DHT22;21376;50.954;4.716;2023-05-07T16:23:52;21.60;99.90
35240;DHT22;21376;50.954;4.716;2023-05-07T16:26:21;21.60;99.90
35240;DHT22;21376;50.954;4.716;2023-05-07T16:28:47;21.80;99.90
35240;DHT22;21376;50.954;4.716;2023-05-07T16:31:13;22.00;99.90
35240;DHT22;21376;50.954;4.716;2023-05-07T16:33:38;22.00;99.90
35240;DHT22;21376;50.954;4.716;2023-05-07T16:36:05;22.10;99.90
35240;DHT22;21376;50.954;4.716;2023-05-07T16:38:31;22.00;99.90
35240;DHT22;21376;50.954;4.716;2023-05-07T16:41:00;21.80;99.90
35240;DHT22;21376;50.954;4.716;2023-05-07T16:43:26;21.80;99.90
35240;DHT22;21376;50.954;4.716;2023-05-07T16:45:51;21.80;99.90
35240;DHT22;21376;50.954;4.716;2023-05-07T16:48:17;21.90;99.90
35240;DHT22;21376;50.954;4.716;2023-05-07T16:50:43;21.90;99.90
35240;DHT22;21376;50.954;4.716;2023-05-07T16:53:11;21.70;99.90
35240;DHT22;21376;50.954;4.716;2023-05-07T16:58:06;22.00;99.90
35240;DHT22;21376;50.954;4.716;2023-05-07T17:00:32;22.00;99.90
35240;DHT22;21376;50.954;4.716;2023-05-07T17:02:57;22.00;99.90
35240;DHT22;21376;50.954;4.716;2023-05-07T17:05:25;21.90;99.90
35240;DHT22;21376;50.954;4.716;2023-05-07T17:07:51;22.00;99.90
35240;DHT22;21376;50.954;4.716;2023-05-07T17:10:18;21.80;99.90
35240;DHT22;21376;50.954;4.716;2023-05-07T17:12:44;21.80;99.90
35240;DHT22;21376;50.954;4.716;2023-05-07T17:15:10;21.80;99.90
35240;DHT22;21376;50.954;4.716;2023-05-07T17:17:36;21.70;99.90
35240;DHT22;21376;50.954;4.716;2023-05-07T17:20:05;21.10;99.90
35240;DHT22;21376;50.954;4.716;2023-05-07T17:22:31;20.70;99.90
35240;DHT22;21376;50.954;4.716;2023-05-07T17:25:03;20.20;99.90
35240;DHT22;21376;50.954;4.716;2023-05-07T17:27:31;20.30;99.90
35240;DHT22;21376;50.954;4.716;2023-05-07T17:29:58;20.80;99.90
35240;DHT22;21376;50.954;4.716;2023-05-07T17:34:54;21.10;99.90
35240;DHT22;21376;50.954;4.716;2023-05-07T17:37:21;21.10;99.90
35240;DHT22;21376;50.954;4.716;2023-05-07T17:39:46;20.90;99.90
35240;DHT22;21376;50.954;4.716;2023-05-07T17:42:13;20.60;99.90
35240;DHT22;21376;50.954;4.716;2023-05-07T17:44:41;20.60;99.90
35240;DHT22;21376;50.954;4.716;2023-05-07T17:47:09;20.80;99.90
35240;DHT22;21376;50.954;4.716;2023-05-07T17:49:35;20.80;99.90
35240;DHT22;21376;50.954;4.716;2023-05-07T17:52:01;20.90;99.90
35240;DHT22;21376;50.954;4.716;2023-05-07T17:54:27;21.00;99.90
35240;DHT22;21376;50.954;4.716;2023-05-07T17:56:54;21.00;99.90
35240;DHT22;21376;50.954;4.716;2023-05-07T17:59:20;21.00;99.90
35240;DHT22;21376;50.954;4.716;2023-05-07T18:01:48;20.90;99.90
35240;DHT22;21376;50.954;4.716;2023-05-07T18:04:13;20.70;99.90
35240;DHT22;21376;50.954;4.716;2023-05-07T18:06:39;20.70;99.90
35240;DHT22;21376;50.954;4.716;2023-05-07T18:09:08;20.40;99.90
35240;DHT22;21376;50.954;4.716;2023-05-07T18:11:37;20.20;99.90
35240;DHT22;21376;50.954;4.716;2023-05-07T18:16:33;19.90;99.90
35240;DHT22;21376;50.954;4.716;2023-05-07T18:19:09;20.10;99.90
35240;DHT22;21376;50.954;4.716;2023-05-07T18:29:05;19.50;99.90
35240;DHT22;21376;50.954;4.716;2023-05-07T18:31:30;19.40;99.90
35240;DHT22;21376;50.954;4.716;2023-05-07T18:33:56;19.60;99.90
35240;DHT22;21376;50.954;4.716;2023-05-07T18:36:23;19.70;99.90
35240;DHT22;21376;50.954;4.716;2023-05-07T18:38:52;19.70;99.90
35240;DHT22;21376;50.954;4.716;2023-05-07T18:41:18;19.50;99.90
35240;DHT22;21376;50.954;4.716;2023-05-07T18:43:44;19.40;99.90
35240;DHT22;21376;50.954;4.716;2023-05-07T18:46:09;19.50;99.90
35240;DHT22;21376;50.954;4.716;2023-05-07T18:48:38;19.40;99.90
35240;DHT22;21376;50.954;4.716;2023-05-07T18:51:12;19.40;99.90
35240;DHT22;21376;50.954;4.716;2023-05-07T18:53:44;19.40;99.90
35240;DHT22;21376;50.954;4.716;2023-05-07T18:58:41;19.20;99.90
35240;DHT22;21376;50.954;4.716;2023-05-07T19:01:09;19.20;99.90
35240;DHT22;21376;50.954;4.716;2023-05-07T19:03:38;19.10;99.90
35240;DHT22;21376;50.954;4.716;2023-05-07T19:08:36;18.80;99.90
35240;DHT22;21376;50.954;4.716;2023-05-07T19:13:33;18.80;99.90
35240;DHT22;21376;50.954;4.716;2023-05-07T19:16:13;18.70;99.90
35240;DHT22;21376;50.954;4.716;2023-05-07T19:18:48;18.70;99.90
35240;DHT22;21376;50.954;4.716;2023-05-07T19:21:14;18.70;99.90
35240;DHT22;21376;50.954;4.716;2023-05-07T19:23:39;18.50;99.90
35240;DHT22;21376;50.954;4.716;2023-05-07T19:28:43;18.50;99.90
35240;DHT22;21376;50.954;4.716;2023-05-07T19:31:21;18.40;99.90
35240;DHT22;21376;50.954;4.716;2023-05-07T19:33:50;18.20;99.90
35240;DHT22;21376;50.954;4.716;2023-05-07T19:36:16;18.30;99.90
35240;DHT22;21376;50.954;4.716;2023-05-07T19:38:42;18.20;99.90
35240;DHT22;21376;50.954;4.716;2023-05-07T19:41:10;18.30;99.90